Time;durP1;ratioP1;P1;durP2;ratioP2;P2;SDS_P1;SDS_P2;PMS_P1;PMS_P2;Temp;Humidity;BMP_temperature;BMP_pressure;BME280_temperature;BME280_humidity;BME280_pressure;Samples;Min_cycle;Max_cycle;Signal;HPM_P1;HPM_P2
2021/05/20 00:00:50;;;;;;;6.28;1.52;;;7.80;99.90;;;;;;5098357;28;20056;-71
2021/05/20 00:03:17;;;;;;;2.28;0.90;;;7.80;99.90;;;;;;5098423;28;20078;-71
2021/05/20 00:05:44;;;;;;;2.13;0.82;;;7.70;99.90;;;;;;5098394;28;20052;-72
2021/05/20 00:08:11;;;;;;;3.13;1.23;;;7.60;99.90;;;;;;5098195;28;20048;-72
2021/05/20 00:10:37;;;;;;;2.45;0.68;;;7.60;99.90;;;;;;5097955;28;20059;-72
2021/05/20 00:13:04;;;;;;;2.25;0.70;;;7.60;99.90;;;;;;5098134;28;20398;-72
2021/05/20 00:15:31;;;;;;;1.00;0.60;;;7.60;99.90;;;;;;5098226;28;20055;-72
2021/05/20 00:17:57;;;;;;;3.38;1.50;;;7.50;99.90;;;;;;5098210;28;20048;-72
2021/05/20 00:20:24;;;;;;;1.92;0.82;;;7.50;99.90;;;;;;5098199;28;20060;-72
2021/05/20 00:22:51;;;;;;;3.10;1.00;;;7.50;99.90;;;;;;5097958;28;20121;-72
2021/05/20 00:25:18;;;;;;;2.72;1.08;;;7.50;99.90;;;;;;5098239;28;20044;-72
2021/05/20 00:27:44;;;;;;;2.05;1.00;;;7.50;99.90;;;;;;5097847;28;20044;-72
2021/05/20 00:30:12;;;;;;;2.65;1.48;;;7.40;99.90;;;;;;5096825;28;20380;-71
2021/05/20 00:32:39;;;;;;;4.15;1.00;;;7.40;99.90;;;;;;5096075;28;20481;-72
2021/05/20 00:35:06;;;;;;;4.95;1.60;;;7.40;99.90;;;;;;5097172;28;20052;-72
2021/05/20 00:37:33;;;;;;;7.35;1.92;;;7.30;99.90;;;;;;5096334;28;20470;-72
2021/05/20 00:40:00;;;;;;;4.25;1.23;;;7.30;99.90;;;;;;5097627;28;20143;-72
2021/05/20 00:42:27;;;;;;;2.67;1.20;;;7.30;99.90;;;;;;5097549;28;20058;-72
2021/05/20 00:44:54;;;;;;;5.97;2.08;;;7.30;99.90;;;;;;5097711;28;20056;-72
2021/05/20 00:47:21;;;;;;;2.47;1.33;;;7.30;99.90;;;;;;5097469;28;20113;-72
2021/05/20 00:49:48;;;;;;;4.40;1.13;;;7.30;99.90;;;;;;5097468;28;20048;-72
2021/05/20 00:52:14;;;;;;;4.30;1.45;;;7.30;99.90;;;;;;5097609;28;20059;-72
2021/05/20 00:54:41;;;;;;;4.57;1.17;;;7.30;99.90;;;;;;5096655;28;20048;-72
2021/05/20 00:57:09;;;;;;;4.10;1.15;;;7.30;99.90;;;;;;5097284;28;20471;-72
2021/05/20 00:59:35;;;;;;;4.30;1.80;;;7.20;99.90;;;;;;5097379;28;20052;-72
2021/05/20 01:02:02;;;;;;;3.17;1.33;;;7.30;99.90;;;;;;5097215;28;20056;-72
2021/05/20 01:04:28;;;;;;;5.10;1.25;;;7.20;99.90;;;;;;5097118;28;20380;-72
2021/05/20 01:06:55;;;;;;;1.67;0.90;;;7.20;99.90;;;;;;5097337;28;20056;-72
2021/05/20 01:09:22;;;;;;;4.55;1.27;;;7.10;99.90;;;;;;5096896;28;20066;-72
2021/05/20 01:11:48;;;;;;;3.25;1.08;;;7.20;99.90;;;;;;5097312;28;20044;-72
2021/05/20 01:14:16;;;;;;;2.38;0.90;;;7.10;99.90;;;;;;5096870;28;20544;-72
2021/05/20 01:16:42;;;;;;;4.03;1.60;;;7.10;99.90;;;;;;5097005;28;20392;-72
2021/05/20 01:19:09;;;;;;;3.50;1.17;;;7.10;99.90;;;;;;5096902;28;20055;-72
2021/05/20 01:21:36;;;;;;;1.58;0.75;;;7.10;99.90;;;;;;5097094;28;20047;-72
2021/05/20 01:24:03;;;;;;;1.88;1.10;;;7.10;99.90;;;;;;5096753;28;20048;-72
2021/05/20 01:26:30;;;;;;;2.05;0.85;;;7.10;99.90;;;;;;5096916;28;20081;-72
2021/05/20 01:28:57;;;;;;;1.85;0.90;;;7.10;99.90;;;;;;5096632;28;20452;-71
2021/05/20 01:31:24;;;;;;;2.00;1.17;;;7.10;99.90;;;;;;5096744;28;20048;-71
2021/05/20 01:33:50;;;;;;;1.35;0.88;;;7.10;99.90;;;;;;5096506;28;20047;-71
2021/05/20 01:36:25;;;;;;;1.75;1.08;;;7.10;99.90;;;;;;5096455;28;20482;-71
2021/05/20 01:38:53;;;;;;;6.95;1.05;;;7.10;99.90;;;;;;5096782;28;20056;-71
2021/05/20 01:41:19;;;;;;;1.52;0.73;;;7.10;99.90;;;;;;5096635;28;20308;-71
2021/05/20 01:43:46;;;;;;;1.35;0.90;;;7.10;99.90;;;;;;5096539;28;20062;-71
2021/05/20 01:46:12;;;;;;;2.88;0.90;;;7.10;99.90;;;;;;5096289;28;20047;-71
2021/05/20 01:48:40;;;;;;;1.70;1.10;;;7.10;99.90;;;;;;5096426;28;20371;-71
2021/05/20 01:51:07;;;;;;;1.25;0.85;;;7.00;99.90;;;;;;5096520;28;20051;-72
2021/05/20 01:53:34;;;;;;;4.03;0.73;;;7.00;99.90;;;;;;5096142;28;20460;-72
2021/05/20 01:56:01;;;;;;;5.15;1.10;;;7.00;99.90;;;;;;5096306;28;20104;-72
2021/05/20 01:58:28;;;;;;;3.95;1.05;;;7.00;99.90;;;;;;5096108;28;20044;-72
2021/05/20 02:00:54;;;;;;;2.67;0.88;;;7.00;99.90;;;;;;5096318;28;20081;-72
2021/05/20 02:03:21;;;;;;;3.05;1.48;;;7.00;99.90;;;;;;5096035;28;20067;-72
2021/05/20 02:05:48;;;;;;;2.85;1.42;;;7.00;99.90;;;;;;5095982;28;20052;-72
2021/05/20 02:08:14;;;;;;;1.58;1.00;;;7.00;99.90;;;;;;5096028;28;20052;-72
2021/05/20 02:10:41;;;;;;;2.65;0.75;;;7.00;99.90;;;;;;5095797;28;20051;-71
2021/05/20 02:13:08;;;;;;;2.38;1.20;;;7.00;99.90;;;;;;5095878;28;20120;-72
2021/05/20 02:15:36;;;;;;;5.10;0.93;;;7.00;99.90;;;;;;5095760;28;20052;-72
2021/05/20 02:18:03;;;;;;;2.85;0.60;;;6.90;99.90;;;;;;5095710;28;20051;-71
2021/05/20 02:20:30;;;;;;;5.10;1.05;;;7.00;99.90;;;;;;5095856;28;20055;-72
2021/05/20 02:22:57;;;;;;;3.50;0.73;;;6.90;99.90;;;;;;5095636;28;20052;-72
2021/05/20 02:25:23;;;;;;;1.45;0.77;;;6.90;99.90;;;;;;5095839;28;20397;-72
2021/05/20 02:27:50;;;;;;;2.95;0.75;;;6.90;99.90;;;;;;5095561;28;20066;-72
2021/05/20 02:30:18;;;;;;;2.08;0.82;;;6.90;99.90;;;;;;5095575;28;20091;-72
2021/05/20 02:32:45;;;;;;;6.15;0.90;;;6.90;99.90;;;;;;5095718;28;20048;-72
2021/05/20 02:35:12;;;;;;;1.88;1.08;;;6.90;99.90;;;;;;5095635;28;20044;-72
2021/05/20 02:37:39;;;;;;;2.00;0.80;;;6.80;99.90;;;;;;5095348;28;20474;-72
2021/05/20 02:40:07;;;;;;;3.08;1.23;;;6.80;99.90;;;;;;5095440;28;20044;-72
2021/05/20 02:42:34;;;;;;;4.28;1.08;;;6.80;99.90;;;;;;5095392;28;20060;-72
2021/05/20 02:45:00;;;;;;;3.47;1.65;;;6.80;99.90;;;;;;5095268;28;20532;-71
2021/05/20 02:47:28;;;;;;;0.95;0.52;;;6.80;99.90;;;;;;5095432;28;20044;-71
2021/05/20 02:49:55;;;;;;;2.38;1.20;;;6.80;99.90;;;;;;5095164;28;20044;-72
2021/05/20 02:52:21;;;;;;;3.38;1.13;;;6.80;99.90;;;;;;5095406;28;20044;-71
2021/05/20 02:54:48;;;;;;;2.58;1.05;;;6.70;99.90;;;;;;5095156;28;20112;-71
2021/05/20 02:57:14;;;;;;;2.10;0.90;;;6.80;99.90;;;;;;5095088;28;20056;-72
2021/05/20 02:59:41;;;;;;;1.38;0.85;;;6.70;99.90;;;;;;5094971;28;20056;-71
2021/05/20 03:02:07;;;;;;;2.95;1.33;;;6.70;99.90;;;;;;5095215;28;20059;-71
2021/05/20 03:04:35;;;;;;;2.47;1.05;;;6.70;99.90;;;;;;5094903;28;20044;-71
2021/05/20 03:07:02;;;;;;;3.63;0.70;;;6.70;99.90;;;;;;5094877;28;20487;-71
2021/05/20 03:09:29;;;;;;;4.47;0.80;;;6.80;99.90;;;;;;5094827;28;20052;-71
2021/05/20 03:11:57;;;;;;;1.60;0.80;;;6.80;99.90;;;;;;5094919;28;20058;-71
2021/05/20 03:14:24;;;;;;;0.77;0.60;;;6.80;99.90;;;;;;5094707;28;20051;-71
2021/05/20 03:16:50;;;;;;;1.33;0.47;;;6.80;99.90;;;;;;5094840;28;20452;-71
2021/05/20 03:19:17;;;;;;;2.08;0.80;;;6.80;99.90;;;;;;5094582;28;20119;-71
2021/05/20 03:21:44;;;;;;;1.33;0.80;;;6.80;99.90;;;;;;5094888;28;20062;-71
2021/05/20 03:24:11;;;;;;;3.80;0.80;;;6.90;99.90;;;;;;5094760;28;20055;-72
2021/05/20 03:26:38;;;;;;;3.72;1.15;;;6.90;99.90;;;;;;5094660;28;20529;-72
2021/05/20 03:29:04;;;;;;;1.88;0.65;;;6.90;99.90;;;;;;5094595;28;20096;-71
2021/05/20 03:31:31;;;;;;;4.22;0.90;;;6.90;99.90;;;;;;5094617;28;20048;-72
2021/05/20 03:33:58;;;;;;;1.30;0.70;;;6.90;99.90;;;;;;5094792;28;20062;-71
2021/05/20 03:36:24;;;;;;;3.28;1.15;;;6.90;99.90;;;;;;5094792;28;20048;-71
2021/05/20 03:38:52;;;;;;;2.15;0.93;;;6.90;99.90;;;;;;5094564;28;20062;-71
2021/05/20 03:41:19;;;;;;;1.88;0.85;;;6.90;99.90;;;;;;5094545;28;20058;-71
2021/05/20 03:43:45;;;;;;;6.20;1.10;;;6.90;99.90;;;;;;5094437;28;20528;-71
2021/05/20 03:46:12;;;;;;;1.48;0.80;;;6.80;99.90;;;;;;5094598;28;20048;-72
2021/05/20 03:48:38;;;;;;;3.53;0.93;;;6.80;99.90;;;;;;5094495;28;20044;-71
2021/05/20 03:51:05;;;;;;;1.75;0.90;;;6.80;99.90;;;;;;5094612;28;20348;-71
2021/05/20 03:53:32;;;;;;;3.33;0.68;;;6.80;99.90;;;;;;5094713;28;20383;-72
2021/05/20 03:55:59;;;;;;;2.00;0.90;;;6.90;99.90;;;;;;5094614;28;20048;-71
2021/05/20 03:58:27;;;;;;;3.10;0.75;;;6.90;99.90;;;;;;5094389;28;20494;-71
2021/05/20 04:00:53;;;;;;;3.00;0.82;;;6.90;99.90;;;;;;5094718;28;20048;-71
2021/05/20 04:03:24;;;;;;;3.40;1.13;;;6.90;99.90;;;;;;5094340;28;20062;-72
2021/05/20 04:05:54;;;;;;;2.08;0.90;;;7.00;99.90;;;;;;5094323;28;20066;-72
2021/05/20 04:08:21;;;;;;;1.98;0.95;;;7.00;99.90;;;;;;5094378;28;20062;-71
2021/05/20 04:10:47;;;;;;;4.28;0.98;;;7.00;99.90;;;;;;5094120;28;20112;-71
2021/05/20 04:13:26;;;;;;;3.88;0.80;;;7.00;99.90;;;;;;5094184;28;20135;-72
2021/05/20 04:15:53;;;;;;;2.15;1.00;;;7.00;99.90;;;;;;5094331;28;20052;-72
2021/05/20 04:18:20;;;;;;;2.53;0.70;;;7.00;99.90;;;;;;5094425;28;20048;-72
2021/05/20 04:20:47;;;;;;;0.88;0.50;;;7.10;99.90;;;;;;5094490;28;20052;-71
2021/05/20 04:23:13;;;;;;;3.97;0.85;;;7.10;99.90;;;;;;5094131;28;20048;-72
2021/05/20 04:25:40;;;;;;;3.60;1.10;;;7.10;99.90;;;;;;5094368;28;20051;-72
2021/05/20 04:28:06;;;;;;;2.28;0.70;;;7.20;99.90;;;;;;5094177;28;20055;-72
2021/05/20 04:30:34;;;;;;;1.13;0.45;;;7.20;99.90;;;;;;5095912;28;20044;-72
2021/05/20 04:33:01;;;;;;;2.35;0.80;;;7.30;99.90;;;;;;5097655;28;20058;-72
2021/05/20 04:35:27;;;;;;;0.88;0.60;;;7.30;99.90;;;;;;5097826;28;20052;-72
2021/05/20 04:37:54;;;;;;;1.25;1.10;;;7.30;99.90;;;;;;5097765;28;20112;-72
2021/05/20 04:40:20;;;;;;;1.50;0.95;;;7.40;99.90;;;;;;5097603;28;20199;-72
2021/05/20 04:42:47;;;;;;;1.77;0.90;;;7.40;99.90;;;;;;5097584;28;20472;-72
2021/05/20 04:45:14;;;;;;;3.45;0.55;;;7.50;99.90;;;;;;5097596;28;20052;-72
2021/05/20 04:47:41;;;;;;;0.95;0.90;;;7.50;99.90;;;;;;5097625;28;20124;-72
2021/05/20 04:50:09;;;;;;;2.10;0.60;;;7.60;99.90;;;;;;5097597;28;20052;-72
2021/05/20 04:52:36;;;;;;;0.75;0.40;;;7.60;99.90;;;;;;5097421;28;20052;-71
2021/05/20 04:55:03;;;;;;;4.10;0.70;;;7.60;99.90;;;;;;5097287;28;20468;-71
2021/05/20 04:57:29;;;;;;;2.97;1.02;;;7.60;99.90;;;;;;5097290;28;20048;-71
2021/05/20 04:59:56;;;;;;;1.95;0.60;;;7.70;99.90;;;;;;5097501;28;20048;-71
2021/05/20 05:02:23;;;;;;;1.13;0.60;;;7.70;99.90;;;;;;5097286;28;20059;-71
2021/05/20 05:04:50;;;;;;;1.02;0.80;;;7.70;99.90;;;;;;5097224;28;20372;-71
2021/05/20 05:07:17;;;;;;;2.00;0.63;;;7.80;99.90;;;;;;5097108;28;20052;-71
2021/05/20 05:09:43;;;;;;;2.90;0.80;;;7.80;99.90;;;;;;5096799;28;20494;-72
2021/05/20 05:12:10;;;;;;;3.03;0.70;;;7.80;99.90;;;;;;5097215;28;20105;-72
2021/05/20 05:14:36;;;;;;;1.38;0.50;;;7.80;99.90;;;;;;5096934;28;20043;-71
2021/05/20 05:17:03;;;;;;;4.63;1.23;;;7.90;99.90;;;;;;5097038;28;20048;-72
2021/05/20 05:19:30;;;;;;;1.05;0.50;;;7.90;99.90;;;;;;5096913;28;20405;-71
2021/05/20 05:22:00;;;;;;;0.35;0.22;;;8.00;99.90;;;;;;5096861;28;20044;-71
2021/05/20 05:24:27;;;;;;;1.55;0.47;;;8.00;99.90;;;;;;5096898;28;20048;-72
2021/05/20 05:26:54;;;;;;;;;;;8.00;99.90;;;;;;5097342;28;20509;-72
2021/05/20 05:29:20;;;;;;;1.58;0.50;;;8.10;99.90;;;;;;5095690;28;20858;-72
2021/05/20 05:31:47;;;;;;;1.20;0.40;;;8.10;99.90;;;;;;5096780;28;20052;-72
2021/05/20 05:34:13;;;;;;;1.95;0.63;;;8.10;99.90;;;;;;5096603;28;20070;-72
2021/05/20 05:36:40;;;;;;;2.00;0.32;;;8.10;99.90;;;;;;5096474;28;20051;-72
2021/05/20 05:39:08;;;;;;;1.13;0.60;;;8.20;99.90;;;;;;5096738;28;20051;-72
2021/05/20 05:41:34;;;;;;;2.25;0.50;;;8.20;99.90;;;;;;5096365;28;20044;-72
2021/05/20 05:44:01;;;;;;;2.45;0.50;;;8.30;99.90;;;;;;5096407;28;20048;-72
2021/05/20 05:46:27;;;;;;;1.38;0.90;;;8.30;99.90;;;;;;5096369;28;20477;-72
2021/05/20 05:48:55;;;;;;;1.00;0.68;;;8.30;99.90;;;;;;5096406;28;20044;-72
2021/05/20 05:51:24;;;;;;;1.30;0.45;;;8.40;99.90;;;;;;5096219;28;20051;-72
2021/05/20 05:53:50;;;;;;;0.90;0.40;;;8.40;99.90;;;;;;5096397;28;20375;-72
2021/05/20 05:56:18;;;;;;;0.22;0.13;;;8.40;99.90;;;;;;5096349;28;20058;-72
2021/05/20 05:58:45;;;;;;;1.35;0.40;;;8.50;99.90;;;;;;5096243;28;20059;-72
2021/05/20 06:01:11;;;;;;;1.33;0.30;;;8.50;99.90;;;;;;5096064;28;20048;-72
2021/05/20 06:03:38;;;;;;;2.17;0.40;;;8.50;99.90;;;;;;5096021;28;20043;-72
2021/05/20 06:06:04;;;;;;;;;;;8.60;99.90;;;;;;5096678;28;20060;-72
2021/05/20 06:08:32;;;;;;;;;;;8.60;99.90;;;;;;5096374;28;19920;-72
2021/05/20 06:10:58;;;;;;;;;;;8.60;99.90;;;;;;5096318;28;19928;-72
2021/05/20 06:13:26;;;;;;;;;;;8.60;99.90;;;;;;5096454;28;19920;-73
2021/05/20 06:15:52;;;;;;;;;;;8.70;99.90;;;;;;5096332;28;19927;-73
2021/05/20 06:18:18;;;;;;;;;;;8.70;99.90;;;;;;5096141;28;19920;-73
2021/05/20 06:20:45;;;;;;;;;;;8.70;99.90;;;;;;5096210;28;19930;-73
2021/05/20 06:23:11;;;;;;;;;;;8.70;99.90;;;;;;5096198;28;19931;-73
2021/05/20 06:25:40;;;;;;;;;;;8.80;99.90;;;;;;5096096;28;19927;-73
2021/05/20 06:28:07;;;;;;;;;;;8.90;99.90;;;;;;5096143;28;19963;-73
2021/05/20 06:30:34;;;;;;;;;;;8.90;99.90;;;;;;5096031;28;20061;-73
2021/05/20 06:33:00;;;;;;;;;;;9.00;99.90;;;;;;5095919;28;19924;-73
2021/05/20 06:35:27;;;;;;;;;;;9.00;99.90;;;;;;5096129;28;19946;-73
2021/05/20 06:37:53;;;;;;;;;;;9.10;99.90;;;;;;5096077;28;19920;-73
2021/05/20 06:40:20;;;;;;;;;;;9.20;99.90;;;;;;5095970;28;20007;-73
2021/05/20 06:42:46;;;;;;;;;;;9.30;99.90;;;;;;5095877;28;19924;-73
2021/05/20 06:45:12;;;;;;;;;;;9.40;99.90;;;;;;5095832;28;20029;-73
2021/05/20 06:47:40;;;;;;;;;;;9.40;99.90;;;;;;5095683;28;19920;-73
2021/05/20 06:50:07;;;;;;;;;;;9.50;99.90;;;;;;5095748;28;19920;-73
2021/05/20 06:52:33;;;;;;;;;;;9.50;99.90;;;;;;5095135;28;19931;-73
2021/05/20 06:54:59;;;;;;;;;;;9.60;99.90;;;;;;5095648;28;19919;-73
2021/05/20 06:57:28;;;;;;;;;;;9.60;99.90;;;;;;5095527;28;20343;-73
2021/05/20 06:59:57;;;;;;;;;;;9.60;99.90;;;;;;5095564;28;19920;-73
2021/05/20 07:02:23;;;;;;;;;;;9.70;99.90;;;;;;5095396;28;19981;-73
2021/05/20 07:04:51;;;;;;;;;;;9.80;99.90;;;;;;5095463;28;19930;-74
2021/05/20 07:07:17;;;;;;;;;;;9.90;99.90;;;;;;5095654;28;19928;-73
2021/05/20 07:09:43;;;;;;;;;;;9.90;99.90;;;;;;5095447;28;19920;-73
2021/05/20 07:12:11;;;;;;;;;;;9.90;99.90;;;;;;5095437;28;20256;-73
2021/05/20 07:14:37;;;;;;;;;;;9.90;99.90;;;;;;5095086;28;19920;-73
2021/05/20 07:17:04;;;;;;;;;;;9.90;99.90;;;;;;5095226;28;19920;-73
2021/05/20 07:19:30;;;;;;;;;;;10.00;99.90;;;;;;5095353;28;19924;-72
2021/05/20 07:21:57;;;;;;;;;;;10.00;99.90;;;;;;5095491;28;19923;-72
2021/05/20 07:24:24;;;;;;;;;;;10.10;99.90;;;;;;5095267;28;20343;-72
2021/05/20 07:26:50;;;;;;;;;;;10.30;99.90;;;;;;5095255;28;19920;-72
2021/05/20 07:29:16;;;;;;;;;;;10.40;99.90;;;;;;5095227;28;19924;-73
2021/05/20 07:31:42;;;;;;;;;;;10.40;99.90;;;;;;5095117;28;20343;-72
2021/05/20 07:34:09;;;;;;;;;;;10.50;99.90;;;;;;5095078;28;20323;-72
2021/05/20 07:36:35;;;;;;;;;;;10.50;99.90;;;;;;5095320;28;19919;-72
2021/05/20 07:39:02;;;;;;;;;;;10.50;99.90;;;;;;5095200;28;19920;-72
2021/05/20 07:41:30;;;;;;;;;;;10.50;99.90;;;;;;5095106;28;19943;-72
2021/05/20 07:43:56;;;;;;;;;;;10.50;99.90;;;;;;5094981;28;19920;-73
2021/05/20 07:46:22;;;;;;;;;;;10.50;99.90;;;;;;5095012;28;19942;-73
2021/05/20 07:48:49;;;;;;;;;;;10.60;99.90;;;;;;5095225;28;20254;-72
2021/05/20 07:51:15;;;;;;;;;;;10.60;99.90;;;;;;5094965;28;20259;-72
2021/05/20 07:53:41;;;;;;;;;;;10.60;99.90;;;;;;5094809;28;19919;-72
2021/05/20 07:56:09;;;;;;;;;;;10.60;99.90;;;;;;5094955;28;20005;-72
2021/05/20 07:58:35;;;;;;;;;;;10.70;99.90;;;;;;5094926;28;19920;-72
2021/05/20 08:01:02;;;;;;;;;;;10.70;99.90;;;;;;5095104;28;19928;-72
2021/05/20 08:03:31;;;;;;;;;;;10.80;99.90;;;;;;5095132;28;19920;-73
2021/05/20 08:06:01;;;;;;;;;;;10.70;99.90;;;;;;5097986;28;19920;-73
2021/05/20 08:08:33;;;;;;;;;;;10.80;99.90;;;;;;5098899;28;20251;-73
2021/05/20 08:11:03;;;;;;;;;;;10.80;99.90;;;;;;5098242;28;19927;-73
2021/05/20 08:13:30;;;;;;;;;;;10.80;99.90;;;;;;5098318;28;19920;-73
2021/05/20 08:15:56;;;;;;;;;;;10.70;99.90;;;;;;5098824;28;19920;-72
2021/05/20 08:18:23;;;;;;;;;;;10.70;99.90;;;;;;5098833;28;19920;-72
2021/05/20 08:20:49;;;;;;;;;;;10.70;99.90;;;;;;5098494;28;19920;-73
2021/05/20 08:23:15;;;;;;;;;;;10.70;99.90;;;;;;5098412;28;19994;-72
2021/05/20 08:25:42;;;;;;;;;;;10.80;99.90;;;;;;5098469;28;19972;-72
2021/05/20 08:28:08;;;;;;;;;;;10.80;99.90;;;;;;5098392;28;19934;-72
2021/05/20 08:30:35;;;;;;;;;;;10.80;99.90;;;;;;5098445;28;19930;-72
2021/05/20 08:33:02;;;;;;;;;;;10.90;99.90;;;;;;5098469;28;19977;-73
2021/05/20 08:35:28;;;;;;;;;;;11.00;99.90;;;;;;5098159;28;20271;-73
2021/05/20 08:37:54;;;;;;;;;;;11.00;99.90;;;;;;5098247;28;20366;-73
2021/05/20 08:40:21;;;;;;;;;;;11.10;99.90;;;;;;5098087;28;19924;-73
2021/05/20 08:42:47;;;;;;;;;;;11.20;99.90;;;;;;5098027;28;19931;-72
2021/05/20 08:45:14;;;;;;;;;;;11.30;99.90;;;;;;5098075;28;19919;-72
2021/05/20 08:47:41;;;;;;;;;;;11.30;99.90;;;;;;5097949;28;20352;-73
2021/05/20 08:50:08;;;;;;;;;;;11.40;99.90;;;;;;5097972;28;19920;-73
2021/05/20 08:52:34;;;;;;;;;;;11.40;99.90;;;;;;5097970;28;19928;-72
2021/05/20 08:55:01;;;;;;;;;;;11.40;99.90;;;;;;5097757;28;19932;-73
2021/05/20 08:57:27;;;;;;;;;;;11.40;99.90;;;;;;5098024;28;19985;-73
2021/05/20 08:59:54;;;;;;;;;;;11.40;99.90;;;;;;5098085;28;19920;-73
2021/05/20 09:02:23;;;;;;;;;;;11.40;99.90;;;;;;5096737;28;20264;-73
2021/05/20 09:04:57;;;;;;;;;;;11.50;99.90;;;;;;5097412;28;19954;-73
2021/05/20 09:07:29;;;;;;;;;;;11.50;99.90;;;;;;5097303;28;20309;-72
2021/05/20 09:10:01;;;;;;;;;;;11.40;99.90;;;;;;5097480;28;20003;-73
2021/05/20 09:12:28;;;;;;;2.63;1.48;;;11.40;99.90;;;;;;5096002;28;20802;-73
2021/05/20 09:14:54;;;;;;;3.92;1.77;;;11.40;99.90;;;;;;5097047;28;20048;-72
2021/05/20 09:17:21;;;;;;;5.20;1.00;;;11.30;99.90;;;;;;5096388;28;20195;-72
2021/05/20 09:19:52;;;;;;;3.20;1.38;;;11.30;99.90;;;;;;5096967;28;20048;-72
2021/05/20 09:22:21;;;;;;;1.35;0.68;;;11.30;99.90;;;;;;5096932;28;20048;-72
2021/05/20 09:24:48;;;;;;;1.48;0.85;;;11.30;99.90;;;;;;5096860;28;20051;-72
2021/05/20 09:27:25;;;;;;;2.88;0.90;;;11.20;99.90;;;;;;5097028;28;20052;-71
2021/05/20 09:30:25;;;;;;;1.95;1.08;;;11.00;99.90;;;;;;5096679;28;20048;-72
2021/05/20 09:32:53;;;;;;;3.70;1.40;;;10.90;99.90;;;;;;5034909;28;20057;-72
2021/05/20 09:35:20;;;;;;;3.35;1.60;;;10.80;99.90;;;;;;5034758;28;20087;-72
2021/05/20 09:37:53;;;;;;;3.58;0.85;;;10.80;99.90;;;;;;5034800;28;20060;-72
2021/05/20 09:40:21;;;;;;;2.70;1.10;;;10.70;99.90;;;;;;5034840;28;20487;-72
2021/05/20 09:42:48;;;;;;;1.05;0.65;;;10.70;99.90;;;;;;5030017;28;20093;-72
2021/05/20 09:45:16;;;;;;;5.40;1.40;;;10.70;99.90;;;;;;5033463;28;20449;-72
2021/05/20 09:47:44;;;;;;;1.30;0.68;;;10.70;99.90;;;;;;5034514;28;20061;-73
2021/05/20 09:50:12;;;;;;;5.18;1.45;;;10.70;99.90;;;;;;5034522;28;20529;-73
2021/05/20 09:52:38;;;;;;;3.38;1.00;;;10.70;99.90;;;;;;5034691;28;20049;-73
2021/05/20 09:55:18;;;;;;;1.58;0.80;;;10.70;99.90;;;;;;5034542;28;20045;-73
2021/05/20 09:57:46;;;;;;;0.93;0.50;;;10.60;99.90;;;;;;5034433;28;20053;-73
2021/05/20 10:00:15;;;;;;;2.55;1.13;;;10.60;99.90;;;;;;5034405;28;20049;-73
2021/05/20 10:02:43;;;;;;;2.63;1.33;;;10.60;99.90;;;;;;5039595;28;20140;-73
2021/05/20 10:05:27;;;;;;;2.22;0.93;;;10.70;99.90;;;;;;5096073;28;20540;-73
2021/05/20 10:07:54;;;;;;;1.48;0.98;;;10.70;99.90;;;;;;5096176;28;20388;-73
2021/05/20 10:10:21;;;;;;;4.63;0.93;;;10.60;99.90;;;;;;5095774;28;20056;-73
2021/05/20 10:12:48;;;;;;;1.02;0.57;;;10.60;99.90;;;;;;5096184;28;20052;-73
2021/05/20 10:15:16;;;;;;;0.93;0.70;;;10.50;99.90;;;;;;5095732;28;20447;-72
2021/05/20 10:17:42;;;;;;;0.82;0.60;;;10.50;99.90;;;;;;5095904;28;20052;-72
2021/05/20 10:20:11;;;;;;;0.60;0.50;;;10.40;99.90;;;;;;5095903;28;20054;-72
2021/05/20 10:22:38;;;;;;;3.28;0.90;;;10.40;99.90;;;;;;5095755;28;20087;-73
2021/05/20 10:25:05;;;;;;;3.55;0.90;;;10.30;99.90;;;;;;5095651;28;20116;-73
2021/05/20 10:27:33;;;;;;;1.40;1.00;;;10.30;99.90;;;;;;5094584;28;20081;-72
2021/05/20 10:30:00;;;;;;;1.67;1.13;;;10.30;99.90;;;;;;5095739;28;20048;-73
2021/05/20 10:32:27;;;;;;;2.97;1.30;;;10.20;99.90;;;;;;5095557;28;20048;-72
2021/05/20 10:35:00;;;;;;;2.25;0.85;;;10.20;99.90;;;;;;5095766;28;20451;-72
2021/05/20 10:37:28;;;;;;;4.18;0.73;;;10.20;99.90;;;;;;5095269;28;20120;-73
2021/05/20 10:39:55;;;;;;;5.28;0.75;;;10.20;99.90;;;;;;5095298;28;20150;-73
2021/05/20 10:42:38;;;;;;;1.60;0.68;;;10.10;99.90;;;;;;5095359;28;20056;-72
2021/05/20 10:45:18;;;;;;;5.13;1.50;;;10.10;99.90;;;;;;5095196;28;20048;-71
2021/05/20 10:48:22;;;;;;;1.30;1.20;;;10.00;99.90;;;;;;5095469;28;20172;-71
2021/05/20 10:51:14;;;;;;;3.00;1.17;;;10.00;99.90;;;;;;5095280;28;20140;-72
2021/05/20 10:53:50;;;;;;;5.82;1.20;;;10.00;99.90;;;;;;5033264;28;20053;-73
2021/05/20 10:56:52;;;;;;;1.05;0.43;;;10.00;99.90;;;;;;5033385;28;20161;-73
2021/05/20 10:59:40;;;;;;;3.90;0.73;;;9.90;99.90;;;;;;5033313;28;20049;-73
2021/05/20 11:02:16;;;;;;;3.10;0.80;;;9.90;99.90;;;;;;5033361;28;20053;-72
2021/05/20 11:04:44;;;;;;;1.23;0.85;;;9.90;99.90;;;;;;5033254;28;20050;-74
2021/05/20 11:07:11;;;;;;;2.05;0.60;;;9.90;99.90;;;;;;5033190;28;20049;-73
2021/05/20 11:09:44;;;;;;;1.30;0.57;;;9.90;99.90;;;;;;5033085;28;20482;-73
2021/05/20 11:12:11;;;;;;;1.48;1.00;;;9.90;99.90;;;;;;5033127;28;20131;-73
2021/05/20 11:14:51;;;;;;;2.15;0.70;;;9.90;99.90;;;;;;5032962;28;20051;-72
2021/05/20 11:17:36;;;;;;;1.92;0.90;;;9.90;99.90;;;;;;5033027;28;20461;-73
2021/05/20 11:20:51;;;;;;;6.05;1.55;;;10.00;99.90;;;;;;5032049;28;20065;-72
2021/05/20 11:23:36;;;;;;;4.80;1.88;;;9.90;99.90;;;;;;5033112;28;20061;-73
2021/05/20 11:26:19;;;;;;;14.95;4.45;;;9.90;99.90;;;;;;5032962;28;20049;-73
2021/05/20 11:29:05;;;;;;;3.58;1.45;;;10.00;99.90;;;;;;5032906;28;20049;-72
2021/05/20 11:31:33;;;;;;;3.35;2.15;;;10.00;99.90;;;;;;5094708;28;20052;-73
2021/05/20 11:34:24;;;;;;;3.17;1.40;;;10.00;99.90;;;;;;5094624;28;20060;-73
2021/05/20 11:36:50;;;;;;;4.68;1.70;;;10.00;99.90;;;;;;5094894;28;20417;-73
2021/05/20 11:39:18;;;;;;;3.75;1.65;;;10.00;99.90;;;;;;5096059;28;20066;-72
2021/05/20 11:41:44;;;;;;;1.92;0.98;;;10.00;99.90;;;;;;5098821;28;20052;-72
2021/05/20 11:44:15;;;;;;;0.80;0.68;;;10.10;99.90;;;;;;5098873;28;20472;-73
2021/05/20 11:46:44;;;;;;;4.22;1.45;;;10.10;99.90;;;;;;5098725;28;20056;-73
2021/05/20 11:49:21;;;;;;;1.52;0.90;;;10.10;99.90;;;;;;5098660;28;20482;-72
2021/05/20 11:52:07;;;;;;;4.32;0.70;;;10.20;99.90;;;;;;5098845;28;20104;-73
2021/05/20 11:54:35;;;;;;;2.03;1.02;;;10.20;99.90;;;;;;5098532;28;20056;-72
2021/05/20 11:57:02;;;;;;;2.38;0.77;;;10.20;99.90;;;;;;5098573;28;20047;-72
2021/05/20 11:59:46;;;;;;;1.75;0.75;;;10.30;99.90;;;;;;5098738;28;20052;-72
2021/05/20 12:02:15;;;;;;;0.90;0.57;;;10.20;99.90;;;;;;5098592;28;20104;-72
2021/05/20 12:04:42;;;;;;;1.85;0.77;;;10.10;99.90;;;;;;5098552;28;20044;-73
2021/05/20 12:07:18;;;;;;;2.38;0.80;;;10.10;99.90;;;;;;5098460;28;20090;-73
2021/05/20 12:09:44;;;;;;;1.85;1.05;;;10.20;99.90;;;;;;5098134;28;20059;-73
2021/05/20 12:12:12;;;;;;;4.32;1.48;;;10.20;99.90;;;;;;5098175;28;20051;-72
2021/05/20 12:14:38;;;;;;;4.47;1.95;;;10.20;99.90;;;;;;5098326;28;20104;-73
2021/05/20 12:17:10;;;;;;;4.57;1.45;;;10.20;99.90;;;;;;5098097;28;20474;-72
2021/05/20 12:19:39;;;;;;;2.65;0.80;;;10.10;99.90;;;;;;5098263;28;20052;-73
2021/05/20 12:22:28;;;;;;;0.88;0.47;;;10.10;99.90;;;;;;5098011;28;20100;-73
2021/05/20 12:24:55;;;;;;;2.92;0.95;;;10.10;99.90;;;;;;5093881;28;20044;-73
2021/05/20 12:27:24;;;;;;;4.82;1.15;;;10.10;99.90;;;;;;5097983;28;20116;-73
2021/05/20 12:29:51;;;;;;;1.90;0.50;;;10.10;99.90;;;;;;5097953;28;20052;-73
2021/05/20 12:32:39;;;;;;;2.88;1.13;;;10.10;99.90;;;;;;5097901;28;20473;-72
2021/05/20 12:35:31;;;;;;;5.93;1.30;;;10.10;99.90;;;;;;5093054;28;20421;-73
2021/05/20 12:38:06;;;;;;;2.20;0.98;;;10.10;99.90;;;;;;5097976;28;20062;-73
2021/05/20 12:40:34;;;;;;;2.05;0.70;;;10.10;99.90;;;;;;5097766;28;20161;-72
2021/05/20 12:43:15;;;;;;;2.63;0.82;;;10.10;99.90;;;;;;5097601;28;20052;-72
2021/05/20 12:45:44;;;;;;;2.25;0.70;;;10.00;99.90;;;;;;5097857;28;20062;-72
2021/05/20 12:48:30;;;;;;;0.80;0.70;;;10.00;99.90;;;;;;5096630;28;20051;-73
2021/05/20 12:50:58;;;;;;;2.00;0.93;;;10.10;99.90;;;;;;5096570;28;20143;-72
2021/05/20 12:53:36;;;;;;;1.27;0.63;;;10.10;99.90;;;;;;5097514;28;20047;-72
2021/05/20 12:56:05;;;;;;;2.72;0.60;;;10.10;99.90;;;;;;5097582;28;20433;-72
2021/05/20 12:59:05;;;;;;;2.78;0.70;;;10.10;99.90;;;;;;5097581;28;20122;-72
2021/05/20 13:01:35;;;;;;;2.35;0.50;;;10.10;99.90;;;;;;5097198;28;20569;-72
2021/05/20 13:04:07;;;;;;;2.35;1.25;;;10.20;99.90;;;;;;5097262;28;20079;-72
2021/05/20 13:06:35;;;;;;;1.25;0.77;;;10.20;99.90;;;;;;5097305;28;20048;-72
2021/05/20 13:09:06;;;;;;;9.20;1.15;;;10.20;99.90;;;;;;5097189;28;20067;-72
2021/05/20 13:11:37;;;;;;;4.60;0.82;;;10.20;99.90;;;;;;5097036;28;20055;-72
2021/05/20 13:14:23;;;;;;;1.85;0.63;;;10.30;99.90;;;;;;5097469;28;20055;-71
2021/05/20 13:16:54;;;;;;;4.47;0.60;;;10.30;99.90;;;;;;5097067;28;20052;-72
2021/05/20 13:22:21;;;;;;;4.00;0.90;;;10.40;99.90;;;;;;5097023;28;20471;-72
2021/05/20 13:24:51;;;;;;;1.75;0.60;;;10.40;99.90;;;;;;5096976;28;20051;-72